Quick Links (Output Below):   Max & Min Temps   /   Climate Reports   /   Zone Forecasts
River Forecasts   /   Forestry Forecasts   /   Aviation Forecasts   /   Radars   /   Features

Terminal Aerodrome Forecast (Monticello)

Pick a Site:
Arkadelphia | El Dorado | Fayetteville | Fort Smith | Harrison | Highfill | Hot Springs | Jonesboro
Little Rock | Monticello | Mountain Home | Pine Bluff | Texarkana
 Forecast 

KLLQ 091136Z 0912/1012 27005KT P6SM SKC
     FM091500 31012G24KT P6SM SKC
     FM100000 31006KT P6SM SKC
     FM100400 28003KT P6SM SKC=


 Latest METARs (Observations) 
How to Decode METARs
11Z KLLQ 091053Z AUTO 27007KT 10SM CLR 01/M10 A3007 RMK AO2 SLP184
         T00061100
         
10Z KLLQ 090953Z AUTO 28006KT 10SM CLR 01/M10 A3006 RMK AO2 SLP179
         T00111100
         
09Z KLLQ 090853Z AUTO 26005KT 10SM CLR 01/M09 A3006 RMK AO2 SLP180
         T00061094 58002
         
08Z KLLQ 090753Z AUTO 30005KT 10SM CLR 02/M09 A3007 RMK AO2 SLP184
         T00171094
         
07Z KLLQ 090653Z AUTO 29004KT 10SM CLR 02/M08 A3007 RMK AO2 SLP184
         T00171083
         
06Z KLLQ 090553Z AUTO 29003KT 10SM CLR 01/M08 A3007 RMK AO2 SLP182
         T00111078 10067 21006 401111006 58006
         
05Z KLLQ 090453Z AUTO 27005KT 10SM CLR M01/M07 A3007 RMK AO2 SLP184
         T10061067
         
04Z KLLQ 090353Z AUTO 00000KT 10SM CLR M01/M07 A3008 RMK AO2 SLP188
         T10061067
         
03Z KLLQ 090253Z AUTO 28004KT 10SM CLR 03/M08 A3008 RMK AO2 SLP188
         T00331078 51009
         
02Z KLLQ 090153Z AUTO 30003KT 10SM CLR 03/M07 A3008 RMK AO2 SLP187
         T00331072
         
***** Today's Observations (Above) *****


Back to Main Page
http://www.srh.noaa.gov/lzk/qfcst.php

USA.gov is the U.S. government's official web portal to all federal, state and local government web resources and services.